sensor_id;sensor_type;location;lat;lon;timestamp;temperature;humidity
70089;HTU21D;57460;47.134;19.888;2023-10-08T00:01:04;19.48;53.32
70089;HTU21D;57460;47.134;19.888;2023-10-08T00:03:31;19.45;53.55
70089;HTU21D;57460;47.134;19.888;2023-10-08T00:06:02;19.53;53.21
70089;HTU21D;57460;47.134;19.888;2023-10-08T00:08:35;19.50;53.69
70089;HTU21D;57460;47.134;19.888;2023-10-08T00:11:01;19.46;53.98
70089;HTU21D;57460;47.134;19.888;2023-10-08T00:13:36;19.54;53.70
70089;HTU21D;57460;47.134;19.888;2023-10-08T00:16:11;19.55;53.02
70089;HTU21D;57460;47.134;19.888;2023-10-08T00:18:38;19.45;53.95
70089;HTU21D;57460;47.134;19.888;2023-10-08T00:21:07;19.46;54.04
70089;HTU21D;57460;47.134;19.888;2023-10-08T00:23:32;19.36;54.90
70089;HTU21D;57460;47.134;19.888;2023-10-08T00:26:01;19.26;55.26
70089;HTU21D;57460;47.134;19.888;2023-10-08T00:28:30;19.29;55.37
70089;HTU21D;57460;47.134;19.888;2023-10-08T00:30:58;19.24;55.36
70089;HTU21D;57460;47.134;19.888;2023-10-08T00:33:31;19.21;56.07
70089;HTU21D;57460;47.134;19.888;2023-10-08T00:35:57;19.16;54.67
70089;HTU21D;57460;47.134;19.888;2023-10-08T00:38:23;19.15;55.27
70089;HTU21D;57460;47.134;19.888;2023-10-08T00:40:51;19.08;55.23
70089;HTU21D;57460;47.134;19.888;2023-10-08T00:43:34;19.10;55.29
70089;HTU21D;57460;47.134;19.888;2023-10-08T00:46:07;19.08;55.84
70089;HTU21D;57460;47.134;19.888;2023-10-08T00:48:46;19.13;54.91
70089;HTU21D;57460;47.134;19.888;2023-10-08T00:51:14;19.13;55.37
70089;HTU21D;57460;47.134;19.888;2023-10-08T00:56:27;19.17;55.42
70089;HTU21D;57460;47.134;19.888;2023-10-08T00:59:12;19.21;55.57
70089;HTU21D;57460;47.134;19.888;2023-10-08T01:01:45;19.11;56.03
70089;HTU21D;57460;47.134;19.888;2023-10-08T01:04:21;19.10;56.07
70089;HTU21D;57460;47.134;19.888;2023-10-08T01:06:57;19.21;54.87
70089;HTU21D;57460;47.134;19.888;2023-10-08T01:09:28;19.21;55.78
70089;HTU21D;57460;47.134;19.888;2023-10-08T01:12:14;19.22;55.79
70089;HTU21D;57460;47.134;19.888;2023-10-08T01:15:00;19.26;54.87
70089;HTU21D;57460;47.134;19.888;2023-10-08T01:17:52;19.23;55.78
70089;HTU21D;57460;47.134;19.888;2023-10-08T01:20:27;19.22;56.05
70089;HTU21D;57460;47.134;19.888;2023-10-08T01:23:10;19.21;55.90
70089;HTU21D;57460;47.134;19.888;2023-10-08T01:25:44;19.26;54.94
70089;HTU21D;57460;47.134;19.888;2023-10-08T01:28:18;19.25;55.92
70089;HTU21D;57460;47.134;19.888;2023-10-08T01:30:58;19.35;54.67
70089;HTU21D;57460;47.134;19.888;2023-10-08T01:33:32;19.36;54.49
70089;HTU21D;57460;47.134;19.888;2023-10-08T01:36:15;19.31;54.76
70089;HTU21D;57460;47.134;19.888;2023-10-08T01:38:41;19.33;54.79
70089;HTU21D;57460;47.134;19.888;2023-10-08T01:41:08;19.29;54.81
70089;HTU21D;57460;47.134;19.888;2023-10-08T01:43:48;19.44;54.04
70089;HTU21D;57460;47.134;19.888;2023-10-08T01:46:18;19.43;52.86
70089;HTU21D;57460;47.134;19.888;2023-10-08T01:48:47;19.57;52.50
70089;HTU21D;57460;47.134;19.888;2023-10-08T01:51:14;19.56;52.54
70089;HTU21D;57460;47.134;19.888;2023-10-08T01:53:54;19.55;50.95
70089;HTU21D;57460;47.134;19.888;2023-10-08T01:56:23;19.68;52.27
70089;HTU21D;57460;47.134;19.888;2023-10-08T01:58:50;19.71;51.56
70089;HTU21D;57460;47.134;19.888;2023-10-08T02:01:24;19.69;51.56
70089;HTU21D;57460;47.134;19.888;2023-10-08T02:03:50;19.62;51.79
70089;HTU21D;57460;47.134;19.888;2023-10-08T02:06:16;19.68;52.08
70089;HTU21D;57460;47.134;19.888;2023-10-08T02:08:41;19.62;51.30
70089;HTU21D;57460;47.134;19.888;2023-10-08T02:11:07;19.61;51.06
70089;HTU21D;57460;47.134;19.888;2023-10-08T02:13:34;19.61;49.49
70089;HTU21D;57460;47.134;19.888;2023-10-08T02:16:00;19.80;51.18
70089;HTU21D;57460;47.134;19.888;2023-10-08T02:18:26;19.72;50.76
70089;HTU21D;57460;47.134;19.888;2023-10-08T02:20:51;19.81;50.58
70089;HTU21D;57460;47.134;19.888;2023-10-08T02:23:18;19.77;48.98
70089;HTU21D;57460;47.134;19.888;2023-10-08T02:25:44;20.04;49.79
70089;HTU21D;57460;47.134;19.888;2023-10-08T02:28:10;20.04;48.51
70089;HTU21D;57460;47.134;19.888;2023-10-08T02:30:41;20.17;49.36
70089;HTU21D;57460;47.134;19.888;2023-10-08T02:33:07;20.36;48.70
70089;HTU21D;57460;47.134;19.888;2023-10-08T02:35:40;20.45;48.31
70089;HTU21D;57460;47.134;19.888;2023-10-08T02:38:10;20.36;46.45
70089;HTU21D;57460;47.134;19.888;2023-10-08T02:40:38;20.47;47.38
70089;HTU21D;57460;47.134;19.888;2023-10-08T02:43:10;20.41;45.77
70089;HTU21D;57460;47.134;19.888;2023-10-08T02:45:37;20.53;46.61
70089;HTU21D;57460;47.134;19.888;2023-10-08T02:48:07;20.65;46.52
70089;HTU21D;57460;47.134;19.888;2023-10-08T02:50:39;20.62;46.48
70089;HTU21D;57460;47.134;19.888;2023-10-08T02:53:09;20.61;46.89
70089;HTU21D;57460;47.134;19.888;2023-10-08T02:55:43;20.58;47.12
70089;HTU21D;57460;47.134;19.888;2023-10-08T02:58:13;20.57;47.35
70089;HTU21D;57460;47.134;19.888;2023-10-08T03:00:48;20.46;47.70
70089;HTU21D;57460;47.134;19.888;2023-10-08T03:03:18;20.41;47.78
70089;HTU21D;57460;47.134;19.888;2023-10-08T03:05:45;20.34;48.06
70089;HTU21D;57460;47.134;19.888;2023-10-08T03:08:13;20.36;47.97
70089;HTU21D;57460;47.134;19.888;2023-10-08T03:10:39;20.30;48.04
70089;HTU21D;57460;47.134;19.888;2023-10-08T03:13:07;20.40;47.77
70089;HTU21D;57460;47.134;19.888;2023-10-08T03:15:40;20.29;48.21
70089;HTU21D;57460;47.134;19.888;2023-10-08T03:18:12;20.36;48.06
70089;HTU21D;57460;47.134;19.888;2023-10-08T03:20:43;20.43;47.80
70089;HTU21D;57460;47.134;19.888;2023-10-08T03:23:14;20.29;48.02
70089;HTU21D;57460;47.134;19.888;2023-10-08T03:25:55;20.37;48.05
70089;HTU21D;57460;47.134;19.888;2023-10-08T03:28:37;20.24;47.97
70089;HTU21D;57460;47.134;19.888;2023-10-08T03:31:06;20.37;47.83
70089;HTU21D;57460;47.134;19.888;2023-10-08T03:33:40;20.36;47.83
70089;HTU21D;57460;47.134;19.888;2023-10-08T03:36:07;20.15;48.29
70089;HTU21D;57460;47.134;19.888;2023-10-08T03:38:59;20.10;48.42
70089;HTU21D;57460;47.134;19.888;2023-10-08T03:41:34;20.12;48.41
70089;HTU21D;57460;47.134;19.888;2023-10-08T03:44:05;20.14;48.46
70089;HTU21D;57460;47.134;19.888;2023-10-08T03:46:39;20.02;48.67
70089;HTU21D;57460;47.134;19.888;2023-10-08T03:49:06;20.05;48.80
70089;HTU21D;57460;47.134;19.888;2023-10-08T03:51:40;20.00;49.21
70089;HTU21D;57460;47.134;19.888;2023-10-08T03:54:09;20.03;49.18
70089;HTU21D;57460;47.134;19.888;2023-10-08T03:56:35;20.00;49.52
70089;HTU21D;57460;47.134;19.888;2023-10-08T03:59:05;20.00;49.58
70089;HTU21D;57460;47.134;19.888;2023-10-08T04:01:39;19.97;49.76
70089;HTU21D;57460;47.134;19.888;2023-10-08T04:04:06;20.10;49.24
70089;HTU21D;57460;47.134;19.888;2023-10-08T04:06:37;19.88;50.06
70089;HTU21D;57460;47.134;19.888;2023-10-08T04:09:05;19.81;50.40
70089;HTU21D;57460;47.134;19.888;2023-10-08T04:11:34;19.84;50.08
70089;HTU21D;57460;47.134;19.888;2023-10-08T04:14:18;19.77;50.63
70089;HTU21D;57460;47.134;19.888;2023-10-08T04:16:46;19.77;50.58
70089;HTU21D;57460;47.134;19.888;2023-10-08T04:19:12;19.82;50.29
70089;HTU21D;57460;47.134;19.888;2023-10-08T04:21:39;19.82;50.91
70089;HTU21D;57460;47.134;19.888;2023-10-08T04:24:08;19.79;51.04
70089;HTU21D;57460;47.134;19.888;2023-10-08T04:26:35;19.70;50.81
70089;HTU21D;57460;47.134;19.888;2023-10-08T04:29:02;19.61;51.17
70089;HTU21D;57460;47.134;19.888;2023-10-08T04:31:29;19.59;51.46
70089;HTU21D;57460;47.134;19.888;2023-10-08T04:34:05;19.52;51.62
70089;HTU21D;57460;47.134;19.888;2023-10-08T04:36:51;19.57;51.24
70089;HTU21D;57460;47.134;19.888;2023-10-08T04:39:20;19.51;51.53
70089;HTU21D;57460;47.134;19.888;2023-10-08T04:42:02;19.50;51.68
70089;HTU21D;57460;47.134;19.888;2023-10-08T04:44:37;19.48;51.73
70089;HTU21D;57460;47.134;19.888;2023-10-08T04:47:07;19.46;51.98
70089;HTU21D;57460;47.134;19.888;2023-10-08T04:49:56;19.42;51.85
70089;HTU21D;57460;47.134;19.888;2023-10-08T04:52:22;19.44;52.02
70089;HTU21D;57460;47.134;19.888;2023-10-08T04:54:50;19.44;51.85
70089;HTU21D;57460;47.134;19.888;2023-10-08T04:57:18;19.42;52.07
70089;HTU21D;57460;47.134;19.888;2023-10-08T04:59:47;19.21;52.52
70089;HTU21D;57460;47.134;19.888;2023-10-08T05:02:15;19.31;51.96
70089;HTU21D;57460;47.134;19.888;2023-10-08T05:05:01;19.37;52.39
70089;HTU21D;57460;47.134;19.888;2023-10-08T05:07:36;19.44;51.83
70089;HTU21D;57460;47.134;19.888;2023-10-08T05:10:13;19.40;52.55
70089;HTU21D;57460;47.134;19.888;2023-10-08T05:12:52;19.39;52.82
70089;HTU21D;57460;47.134;19.888;2023-10-08T05:15:37;19.39;52.57
70089;HTU21D;57460;47.134;19.888;2023-10-08T05:18:31;19.47;51.81
70089;HTU21D;57460;47.134;19.888;2023-10-08T05:21:15;19.56;51.88
70089;HTU21D;57460;47.134;19.888;2023-10-08T05:24:01;19.56;51.86
70089;HTU21D;57460;47.134;19.888;2023-10-08T05:26:39;19.60;52.07
70089;HTU21D;57460;47.134;19.888;2023-10-08T05:29:09;19.63;52.00
70089;HTU21D;57460;47.134;19.888;2023-10-08T05:31:53;19.58;52.25
70089;HTU21D;57460;47.134;19.888;2023-10-08T05:34:40;19.71;51.38
70089;HTU21D;57460;47.134;19.888;2023-10-08T05:37:17;19.77;51.27
70089;HTU21D;57460;47.134;19.888;2023-10-08T05:40:03;19.70;51.21
70089;HTU21D;57460;47.134;19.888;2023-10-08T05:42:43;19.76;51.59
70089;HTU21D;57460;47.134;19.888;2023-10-08T05:45:13;19.75;51.42
70089;HTU21D;57460;47.134;19.888;2023-10-08T05:47:38;19.79;51.25
70089;HTU21D;57460;47.134;19.888;2023-10-08T05:50:07;19.82;51.53
70089;HTU21D;57460;47.134;19.888;2023-10-08T05:52:48;19.77;51.21
70089;HTU21D;57460;47.134;19.888;2023-10-08T05:55:31;19.88;51.27
70089;HTU21D;57460;47.134;19.888;2023-10-08T05:58:04;19.95;51.07
70089;HTU21D;57460;47.134;19.888;2023-10-08T06:00:41;20.03;50.89
70089;HTU21D;57460;47.134;19.888;2023-10-08T06:03:19;20.07;50.98
70089;HTU21D;57460;47.134;19.888;2023-10-08T06:06:13;20.02;51.48
70089;HTU21D;57460;47.134;19.888;2023-10-08T06:08:42;20.03;51.58
70089;HTU21D;57460;47.134;19.888;2023-10-08T06:11:18;20.01;51.17
70089;HTU21D;57460;47.134;19.888;2023-10-08T06:14:07;20.00;51.21
70089;HTU21D;57460;47.134;19.888;2023-10-08T06:16:40;20.13;50.98
70089;HTU21D;57460;47.134;19.888;2023-10-08T06:19:08;20.02;51.68
70089;HTU21D;57460;47.134;19.888;2023-10-08T06:21:36;20.02;51.95
70089;HTU21D;57460;47.134;19.888;2023-10-08T06:24:04;20.16;51.14
70089;HTU21D;57460;47.134;19.888;2023-10-08T06:26:39;20.13;51.37
70089;HTU21D;57460;47.134;19.888;2023-10-08T06:29:12;20.15;50.95
70089;HTU21D;57460;47.134;19.888;2023-10-08T06:31:58;20.11;51.06
70089;HTU21D;57460;47.134;19.888;2023-10-08T06:34:30;20.27;50.84
70089;HTU21D;57460;47.134;19.888;2023-10-08T06:36:59;20.45;50.47
70089;HTU21D;57460;47.134;19.888;2023-10-08T06:39:27;20.42;50.37
70089;HTU21D;57460;47.134;19.888;2023-10-08T06:41:59;20.60;49.84
70089;HTU21D;57460;47.134;19.888;2023-10-08T06:44:26;20.77;49.63
70089;HTU21D;57460;47.134;19.888;2023-10-08T06:46:53;20.77;49.57
70089;HTU21D;57460;47.134;19.888;2023-10-08T06:49:21;20.86;49.00
70089;HTU21D;57460;47.134;19.888;2023-10-08T06:51:51;20.95;49.27
70089;HTU21D;57460;47.134;19.888;2023-10-08T06:54:18;21.04;48.73
70089;HTU21D;57460;47.134;19.888;2023-10-08T06:56:45;21.01;48.56
70089;HTU21D;57460;47.134;19.888;2023-10-08T06:59:18;21.03;48.71
70089;HTU21D;57460;47.134;19.888;2023-10-08T07:01:45;21.19;48.64
70089;HTU21D;57460;47.134;19.888;2023-10-08T07:04:16;21.31;48.42
70089;HTU21D;57460;47.134;19.888;2023-10-08T07:06:44;21.43;48.41
70089;HTU21D;57460;47.134;19.888;2023-10-08T07:09:13;21.58;48.02
70089;HTU21D;57460;47.134;19.888;2023-10-08T07:11:52;21.70;47.08
70089;HTU21D;57460;47.134;19.888;2023-10-08T07:14:24;21.79;47.04
70089;HTU21D;57460;47.134;19.888;2023-10-08T07:16:56;21.88;46.98
70089;HTU21D;57460;47.134;19.888;2023-10-08T07:19:30;21.97;45.25
70089;HTU21D;57460;47.134;19.888;2023-10-08T07:22:04;22.11;46.34
70089;HTU21D;57460;47.134;19.888;2023-10-08T07:24:44;22.21;46.21
70089;HTU21D;57460;47.134;19.888;2023-10-08T07:27:16;22.32;46.12
70089;HTU21D;57460;47.134;19.888;2023-10-08T07:29:48;22.66;45.00
70089;HTU21D;57460;47.134;19.888;2023-10-08T07:32:13;22.66;44.67
70089;HTU21D;57460;47.134;19.888;2023-10-08T07:34:44;22.65;44.82
70089;HTU21D;57460;47.134;19.888;2023-10-08T07:37:10;22.68;44.56
70089;HTU21D;57460;47.134;19.888;2023-10-08T07:39:37;22.70;43.93
70089;HTU21D;57460;47.134;19.888;2023-10-08T07:42:12;22.96;44.62
70089;HTU21D;57460;47.134;19.888;2023-10-08T07:44:39;23.10;43.45
70089;HTU21D;57460;47.134;19.888;2023-10-08T07:47:08;23.28;43.84
70089;HTU21D;57460;47.134;19.888;2023-10-08T07:49:37;23.44;43.50
70089;HTU21D;57460;47.134;19.888;2023-10-08T07:52:03;23.59;43.62
70089;HTU21D;57460;47.134;19.888;2023-10-08T07:54:30;24.01;42.37
70089;HTU21D;57460;47.134;19.888;2023-10-08T07:57:01;24.17;41.73
70089;HTU21D;57460;47.134;19.888;2023-10-08T07:59:39;24.31;41.13
70089;HTU21D;57460;47.134;19.888;2023-10-08T08:02:28;24.51;41.09
70089;HTU21D;57460;47.134;19.888;2023-10-08T08:04:54;24.51;40.98
70089;HTU21D;57460;47.134;19.888;2023-10-08T08:07:23;24.75;40.43
70089;HTU21D;57460;47.134;19.888;2023-10-08T08:09:51;24.92;40.30
70089;HTU21D;57460;47.134;19.888;2023-10-08T08:12:18;24.92;39.78
70089;HTU21D;57460;47.134;19.888;2023-10-08T08:14:45;25.05;39.48
70089;HTU21D;57460;47.134;19.888;2023-10-08T08:17:11;24.99;40.03
70089;HTU21D;57460;47.134;19.888;2023-10-08T08:19:47;24.92;40.47
70089;HTU21D;57460;47.134;19.888;2023-10-08T08:22:16;25.01;40.93
70089;HTU21D;57460;47.134;19.888;2023-10-08T08:24:57;25.21;40.17
70089;HTU21D;57460;47.134;19.888;2023-10-08T08:27:32;25.49;39.01
70089;HTU21D;57460;47.134;19.888;2023-10-08T08:29:59;25.05;39.28
70089;HTU21D;57460;47.134;19.888;2023-10-08T08:32:39;25.08;39.47
70089;HTU21D;57460;47.134;19.888;2023-10-08T08:35:09;24.91;39.80
70089;HTU21D;57460;47.134;19.888;2023-10-08T08:37:40;24.70;40.17
70089;HTU21D;57460;47.134;19.888;2023-10-08T08:40:07;24.50;40.64
70089;HTU21D;57460;47.134;19.888;2023-10-08T08:42:53;24.16;41.15
70089;HTU21D;57460;47.134;19.888;2023-10-08T08:45:23;24.06;41.81
70089;HTU21D;57460;47.134;19.888;2023-10-08T08:47:52;24.10;41.89
70089;HTU21D;57460;47.134;19.888;2023-10-08T08:50:21;24.02;41.97
70089;HTU21D;57460;47.134;19.888;2023-10-08T08:52:47;24.09;41.82
70089;HTU21D;57460;47.134;19.888;2023-10-08T08:55:14;24.09;41.95
70089;HTU21D;57460;47.134;19.888;2023-10-08T08:57:47;24.03;41.92
70089;HTU21D;57460;47.134;19.888;2023-10-08T09:00:14;23.86;42.48
70089;HTU21D;57460;47.134;19.888;2023-10-08T09:02:41;23.99;42.48
70089;HTU21D;57460;47.134;19.888;2023-10-08T09:05:07;23.92;42.31
70089;HTU21D;57460;47.134;19.888;2023-10-08T09:10:22;24.01;42.82
70089;HTU21D;57460;47.134;19.888;2023-10-08T09:12:54;23.98;43.50
70089;HTU21D;57460;47.134;19.888;2023-10-08T09:15:24;24.21;42.85
70089;HTU21D;57460;47.134;19.888;2023-10-08T09:17:52;24.47;42.07
70089;HTU21D;57460;47.134;19.888;2023-10-08T09:20:19;24.45;42.15
70089;HTU21D;57460;47.134;19.888;2023-10-08T09:23:06;24.33;42.55
70089;HTU21D;57460;47.134;19.888;2023-10-08T09:25:44;24.60;41.93
70089;HTU21D;57460;47.134;19.888;2023-10-08T09:28:11;24.60;42.01
70089;HTU21D;57460;47.134;19.888;2023-10-08T09:30:40;24.76;41.84
70089;HTU21D;57460;47.134;19.888;2023-10-08T09:33:09;24.75;41.82
70089;HTU21D;57460;47.134;19.888;2023-10-08T09:35:35;24.77;41.83
70089;HTU21D;57460;47.134;19.888;2023-10-08T09:38:07;24.95;41.45
70089;HTU21D;57460;47.134;19.888;2023-10-08T09:40:42;24.87;41.61
70089;HTU21D;57460;47.134;19.888;2023-10-08T09:43:11;24.97;41.52
70089;HTU21D;57460;47.134;19.888;2023-10-08T09:45:42;24.91;41.73
70089;HTU21D;57460;47.134;19.888;2023-10-08T09:48:11;25.04;41.39
70089;HTU21D;57460;47.134;19.888;2023-10-08T09:50:41;25.17;41.26
70089;HTU21D;57460;47.134;19.888;2023-10-08T09:53:10;25.21;41.18
70089;HTU21D;57460;47.134;19.888;2023-10-08T09:55:53;25.23;40.91
70089;HTU21D;57460;47.134;19.888;2023-10-08T09:58:21;25.32;40.81
70089;HTU21D;57460;47.134;19.888;2023-10-08T10:00:52;25.21;40.81
70089;HTU21D;57460;47.134;19.888;2023-10-08T10:03:20;25.09;41.43
70089;HTU21D;57460;47.134;19.888;2023-10-08T10:05:51;25.09;41.75
70089;HTU21D;57460;47.134;19.888;2023-10-08T10:08:17;25.29;41.10
70089;HTU21D;57460;47.134;19.888;2023-10-08T10:10:43;25.33;41.32
70089;HTU21D;57460;47.134;19.888;2023-10-08T10:13:16;25.54;40.88
70089;HTU21D;57460;47.134;19.888;2023-10-08T10:15:43;25.54;41.20
70089;HTU21D;57460;47.134;19.888;2023-10-08T10:20:46;25.46;41.43
70089;HTU21D;57460;47.134;19.888;2023-10-08T10:23:42;25.50;41.11
70089;HTU21D;57460;47.134;19.888;2023-10-08T10:26:35;25.46;41.53
70089;HTU21D;57460;47.134;19.888;2023-10-08T10:31:41;25.30;41.84
70089;HTU21D;57460;47.134;19.888;2023-10-08T10:34:14;25.13;42.34
70089;HTU21D;57460;47.134;19.888;2023-10-08T10:36:43;25.04;42.55
70089;HTU21D;57460;47.134;19.888;2023-10-08T10:39:10;24.95;42.90
70089;HTU21D;57460;47.134;19.888;2023-10-08T10:41:44;25.02;42.73
70089;HTU21D;57460;47.134;19.888;2023-10-08T10:44:11;24.86;43.50
70089;HTU21D;57460;47.134;19.888;2023-10-08T10:46:47;24.95;43.25
70089;HTU21D;57460;47.134;19.888;2023-10-08T10:49:19;24.99;43.06
70089;HTU21D;57460;47.134;19.888;2023-10-08T10:51:55;24.88;43.86
70089;HTU21D;57460;47.134;19.888;2023-10-08T10:54:25;24.82;44.06
70089;HTU21D;57460;47.134;19.888;2023-10-08T10:56:52;25.01;43.55
70089;HTU21D;57460;47.134;19.888;2023-10-08T10:59:39;25.13;43.12
70089;HTU21D;57460;47.134;19.888;2023-10-08T11:02:05;25.27;43.06
70089;HTU21D;57460;47.134;19.888;2023-10-08T11:04:35;25.19;43.14
70089;HTU21D;57460;47.134;19.888;2023-10-08T11:07:18;25.37;43.00
70089;HTU21D;57460;47.134;19.888;2023-10-08T11:09:50;25.36;43.19
70089;HTU21D;57460;47.134;19.888;2023-10-08T11:12:18;25.58;42.60
70089;HTU21D;57460;47.134;19.888;2023-10-08T11:14:49;25.65;42.42
70089;HTU21D;57460;47.134;19.888;2023-10-08T11:17:25;25.72;42.19
70089;HTU21D;57460;47.134;19.888;2023-10-08T11:19:52;25.78;42.60
70089;HTU21D;57460;47.134;19.888;2023-10-08T11:22:19;25.94;42.65
70089;HTU21D;57460;47.134;19.888;2023-10-08T11:24:48;26.05;41.62
70089;HTU21D;57460;47.134;19.888;2023-10-08T11:27:19;26.20;41.01
70089;HTU21D;57460;47.134;19.888;2023-10-08T11:29:56;25.94;41.87
70089;HTU21D;57460;47.134;19.888;2023-10-08T11:32:26;25.97;42.05
70089;HTU21D;57460;47.134;19.888;2023-10-08T11:34:56;26.19;41.97
70089;HTU21D;57460;47.134;19.888;2023-10-08T11:39:53;26.21;41.27
70089;HTU21D;57460;47.134;19.888;2023-10-08T11:42:24;26.06;41.36
70089;HTU21D;57460;47.134;19.888;2023-10-08T11:45:11;25.87;41.07
70089;HTU21D;57460;47.134;19.888;2023-10-08T11:47:54;25.46;41.87
70089;HTU21D;57460;47.134;19.888;2023-10-08T11:50:28;25.28;42.55
70089;HTU21D;57460;47.134;19.888;2023-10-08T11:53:01;25.12;42.59
70089;HTU21D;57460;47.134;19.888;2023-10-08T11:55:34;24.94;42.92
70089;HTU21D;57460;47.134;19.888;2023-10-08T11:58:03;24.88;42.87
70089;HTU21D;57460;47.134;19.888;2023-10-08T12:00:43;24.65;43.38
70089;HTU21D;57460;47.134;19.888;2023-10-08T12:03:17;24.60;43.55
70089;HTU21D;57460;47.134;19.888;2023-10-08T12:05:48;24.61;42.88
70089;HTU21D;57460;47.134;19.888;2023-10-08T12:08:19;24.44;43.14
70089;HTU21D;57460;47.134;19.888;2023-10-08T12:10:48;24.34;43.64
70089;HTU21D;57460;47.134;19.888;2023-10-08T12:13:20;24.21;44.16
70089;HTU21D;57460;47.134;19.888;2023-10-08T12:15:52;24.14;43.73
70089;HTU21D;57460;47.134;19.888;2023-10-08T12:18:22;24.05;43.30
70089;HTU21D;57460;47.134;19.888;2023-10-08T12:20:51;23.96;43.43
70089;HTU21D;57460;47.134;19.888;2023-10-08T12:23:18;23.72;43.61
70089;HTU21D;57460;47.134;19.888;2023-10-08T12:26:03;23.74;43.35
70089;HTU21D;57460;47.134;19.888;2023-10-08T12:28:33;23.61;43.81
70089;HTU21D;57460;47.134;19.888;2023-10-08T12:31:00;23.56;43.80
70089;HTU21D;57460;47.134;19.888;2023-10-08T12:33:30;23.45;43.78
70089;HTU21D;57460;47.134;19.888;2023-10-08T12:35:57;23.40;44.00
70089;HTU21D;57460;47.134;19.888;2023-10-08T12:38:24;23.37;44.00
70089;HTU21D;57460;47.134;19.888;2023-10-08T12:40:54;23.40;43.87
70089;HTU21D;57460;47.134;19.888;2023-10-08T12:43:21;23.28;43.93
70089;HTU21D;57460;47.134;19.888;2023-10-08T12:45:51;23.23;43.62
70089;HTU21D;57460;47.134;19.888;2023-10-08T12:50:48;23.06;43.13
70089;HTU21D;57460;47.134;19.888;2023-10-08T12:53:25;22.98;42.46
70089;HTU21D;57460;47.134;19.888;2023-10-08T12:56:09;22.88;42.92
70089;HTU21D;57460;47.134;19.888;2023-10-08T12:58:42;22.76;43.24
70089;HTU21D;57460;47.134;19.888;2023-10-08T13:01:15;22.81;42.78
70089;HTU21D;57460;47.134;19.888;2023-10-08T13:03:44;22.73;42.88
70089;HTU21D;57460;47.134;19.888;2023-10-08T13:06:15;22.54;43.24
70089;HTU21D;57460;47.134;19.888;2023-10-08T13:08:49;22.26;43.00
70089;HTU21D;57460;47.134;19.888;2023-10-08T13:11:20;22.06;44.02
70089;HTU21D;57460;47.134;19.888;2023-10-08T13:13:51;21.84;44.27
70089;HTU21D;57460;47.134;19.888;2023-10-08T13:16:21;21.52;43.74
70089;HTU21D;57460;47.134;19.888;2023-10-08T13:18:48;21.22;44.74
70089;HTU21D;57460;47.134;19.888;2023-10-08T13:21:15;21.04;45.08
70089;HTU21D;57460;47.134;19.888;2023-10-08T13:23:42;20.79;46.03
70089;HTU21D;57460;47.134;19.888;2023-10-08T13:26:08;20.61;46.54
70089;HTU21D;57460;47.134;19.888;2023-10-08T13:28:35;20.45;47.03
70089;HTU21D;57460;47.134;19.888;2023-10-08T13:31:05;20.34;48.06
70089;HTU21D;57460;47.134;19.888;2023-10-08T13:33:41;20.26;47.88
70089;HTU21D;57460;47.134;19.888;2023-10-08T13:36:16;20.21;48.15
70089;HTU21D;57460;47.134;19.888;2023-10-08T13:38:42;20.14;48.23
70089;HTU21D;57460;47.134;19.888;2023-10-08T13:41:15;20.13;48.22
70089;HTU21D;57460;47.134;19.888;2023-10-08T13:43:49;20.11;48.25
70089;HTU21D;57460;47.134;19.888;2023-10-08T13:46:18;20.01;48.94
70089;HTU21D;57460;47.134;19.888;2023-10-08T13:48:47;19.94;48.77
70089;HTU21D;57460;47.134;19.888;2023-10-08T13:51:21;19.88;49.23
70089;HTU21D;57460;47.134;19.888;2023-10-08T13:53:52;19.84;49.77
70089;HTU21D;57460;47.134;19.888;2023-10-08T13:56:22;19.83;49.11
70089;HTU21D;57460;47.134;19.888;2023-10-08T13:58:53;19.81;49.08
70089;HTU21D;57460;47.134;19.888;2023-10-08T14:01:33;19.83;49.03
70089;HTU21D;57460;47.134;19.888;2023-10-08T14:04:00;19.73;49.48
70089;HTU21D;57460;47.134;19.888;2023-10-08T14:06:35;19.65;49.52
70089;HTU21D;57460;47.134;19.888;2023-10-08T14:09:03;19.53;49.75
70089;HTU21D;57460;47.134;19.888;2023-10-08T14:11:47;19.48;49.69
70089;HTU21D;57460;47.134;19.888;2023-10-08T14:14:13;19.57;50.01
70089;HTU21D;57460;47.134;19.888;2023-10-08T14:16:42;19.67;50.03
70089;HTU21D;57460;47.134;19.888;2023-10-08T14:19:13;19.74;50.43
70089;HTU21D;57460;47.134;19.888;2023-10-08T14:21:40;19.79;50.21
70089;HTU21D;57460;47.134;19.888;2023-10-08T14:24:16;19.84;50.63
70089;HTU21D;57460;47.134;19.888;2023-10-08T14:26:43;19.86;50.27
70089;HTU21D;57460;47.134;19.888;2023-10-08T14:29:10;19.87;50.07
70089;HTU21D;57460;47.134;19.888;2023-10-08T14:31:43;19.91;50.75
70089;HTU21D;57460;47.134;19.888;2023-10-08T14:34:15;19.92;50.86
70089;HTU21D;57460;47.134;19.888;2023-10-08T14:36:45;19.97;50.23
70089;HTU21D;57460;47.134;19.888;2023-10-08T14:39:33;19.94;51.32
70089;HTU21D;57460;47.134;19.888;2023-10-08T14:42:18;19.84;50.35
70089;HTU21D;57460;47.134;19.888;2023-10-08T14:45:04;19.87;50.55
70089;HTU21D;57460;47.134;19.888;2023-10-08T14:47:37;19.91;50.08
70089;HTU21D;57460;47.134;19.888;2023-10-08T14:50:24;19.85;51.27
70089;HTU21D;57460;47.134;19.888;2023-10-08T14:52:54;19.54;49.53
70089;HTU21D;57460;47.134;19.888;2023-10-08T14:55:25;19.52;49.77
70089;HTU21D;57460;47.134;19.888;2023-10-08T14:57:52;19.63;49.44
70089;HTU21D;57460;47.134;19.888;2023-10-08T15:00:20;19.65;49.49
70089;HTU21D;57460;47.134;19.888;2023-10-08T15:02:57;19.60;49.67
70089;HTU21D;57460;47.134;19.888;2023-10-08T15:05:29;19.65;49.36
70089;HTU21D;57460;47.134;19.888;2023-10-08T15:07:56;19.62;49.44
70089;HTU21D;57460;47.134;19.888;2023-10-08T15:10:23;19.73;49.05
70089;HTU21D;57460;47.134;19.888;2023-10-08T15:12:49;19.59;48.54
70089;HTU21D;57460;47.134;19.888;2023-10-08T15:15:18;19.65;48.46
70089;HTU21D;57460;47.134;19.888;2023-10-08T15:17:46;19.60;48.39
70089;HTU21D;57460;47.134;19.888;2023-10-08T15:20:14;19.56;47.83
70089;HTU21D;57460;47.134;19.888;2023-10-08T15:22:46;19.57;48.05
70089;HTU21D;57460;47.134;19.888;2023-10-08T15:25:18;19.52;47.43
70089;HTU21D;57460;47.134;19.888;2023-10-08T15:27:44;19.42;47.58
70089;HTU21D;57460;47.134;19.888;2023-10-08T15:30:13;19.47;47.67
70089;HTU21D;57460;47.134;19.888;2023-10-08T15:32:48;19.40;47.63
70089;HTU21D;57460;47.134;19.888;2023-10-08T15:35:16;19.31;47.12
70089;HTU21D;57460;47.134;19.888;2023-10-08T15:37:46;19.25;47.12
70089;HTU21D;57460;47.134;19.888;2023-10-08T15:40:15;19.15;46.64
70089;HTU21D;57460;47.134;19.888;2023-10-08T15:42:50;19.20;46.33
70089;HTU21D;57460;47.134;19.888;2023-10-08T15:45:18;19.10;46.90
70089;HTU21D;57460;47.134;19.888;2023-10-08T15:47:46;19.06;46.72